createdAt,value
2018-06-18T00:00:14.449Z,76.02
2018-06-18T00:01:19.950Z,75.82
2018-06-18T00:02:26.474Z,75.45
2018-06-18T00:03:30.976Z,75.45
2018-06-18T00:04:36.500Z,75.82
2018-06-18T00:05:42.024Z,76.12
2018-06-18T00:06:47.540Z,76.21
2018-06-18T00:07:53.088Z,76.02
2018-06-18T00:08:59.562Z,76.21
2018-06-18T00:10:04.065Z,76.21
2018-06-18T00:11:09.600Z,75.92
2018-06-18T00:12:15.112Z,76.40
2018-06-18T00:13:20.613Z,75.92
2018-06-18T00:14:26.137Z,75.82
2018-06-18T00:15:32.667Z,75.73
2018-06-18T00:16:37.180Z,76.02
2018-06-18T00:17:42.682Z,76.02
2018-06-18T00:18:48.206Z,76.02
2018-06-18T00:19:53.727Z,75.73
2018-06-18T00:20:59.238Z,76.12
2018-06-18T00:22:05.767Z,75.73
2018-06-18T00:23:10.267Z,75.73
2018-06-18T00:24:15.785Z,75.73
2018-06-18T00:25:21.309Z,75.35
2018-06-18T00:26:26.804Z,75.63
2018-06-18T00:27:32.335Z,76.12
2018-06-18T00:28:38.843Z,75.82
2018-06-18T00:29:43.355Z,75.35
2018-06-18T00:30:48.876Z,75.92
2018-06-18T00:31:54.401Z,75.35
2018-06-18T00:32:59.915Z,75.06
2018-06-18T00:34:05.418Z,75.15
2018-06-18T00:35:11.954Z,75.35
2018-06-18T00:36:16.462Z,74.96
2018-06-18T00:37:21.971Z,75.15
2018-06-18T00:38:27.487Z,74.48
2018-06-18T00:39:33.037Z,74.87
2018-06-18T00:40:38.524Z,74.39
2018-06-18T00:41:45.038Z,74.48
2018-06-18T00:42:49.550Z,74.68
2018-06-18T00:43:55.068Z,74.48
2018-06-18T00:45:00.585Z,74.01
2018-06-18T00:46:06.112Z,74.68
2018-06-18T00:47:11.618Z,74.01
2018-06-18T00:48:18.155Z,73.81
2018-06-18T00:49:22.647Z,73.91
2018-06-18T00:50:28.175Z,74.19
2018-06-18T00:51:33.681Z,74.48
2018-06-18T00:52:39.199Z,74.19
2018-06-18T00:53:44.698Z,74.87
2018-06-18T00:54:51.237Z,74.19
2018-06-18T00:55:55.746Z,74.10
2018-06-18T00:57:01.254Z,74.29
2018-06-18T00:58:06.759Z,74.19
2018-06-18T00:59:12.281Z,74.39
2018-06-18T01:00:17.797Z,74.48
2018-06-18T01:01:24.325Z,74.13
2018-06-18T01:02:28.851Z,74.48
2018-06-18T01:03:34.363Z,74.71
2018-06-18T01:04:39.864Z,74.48
2018-06-18T01:05:45.386Z,74.68
2018-06-18T01:06:50.889Z,74.39
2018-06-18T01:07:57.412Z,74.48
2018-06-18T01:09:01.925Z,74.68
2018-06-18T01:10:07.438Z,74.48
2018-06-18T01:11:12.968Z,74.39
2018-06-18T01:12:18.587Z,74.10
2018-06-18T01:13:23.998Z,74.19
2018-06-18T01:14:30.524Z,74.48
2018-06-18T01:15:35.031Z,74.48
2018-06-18T01:16:40.542Z,74.77
2018-06-18T01:17:46.045Z,74.01
2018-06-18T01:18:51.573Z,73.72
2018-06-18T01:19:57.099Z,73.81
2018-06-18T01:21:03.618Z,74.39
2018-06-18T01:22:08.118Z,74.01
2018-06-18T01:23:13.644Z,74.10
2018-06-18T01:24:19.161Z,74.68
2018-06-18T01:25:24.662Z,74.48
2018-06-18T01:26:30.183Z,74.58
2018-06-18T01:27:36.708Z,74.68
2018-06-18T01:28:41.226Z,74.19
2018-06-18T01:29:46.737Z,74.19
2018-06-18T01:30:52.243Z,73.62
2018-06-18T01:31:57.768Z,72.95
2018-06-18T01:33:03.266Z,73.72
2018-06-18T01:34:09.808Z,74.01
2018-06-18T01:35:14.304Z,74.29
2018-06-18T01:36:19.817Z,73.72
2018-06-18T01:37:25.337Z,74.19
2018-06-18T01:38:30.864Z,73.72
2018-06-18T01:39:36.377Z,74.01
2018-06-18T01:40:42.902Z,74.19
2018-06-18T01:41:47.402Z,74.10
2018-06-18T01:42:52.924Z,74.10
2018-06-18T01:43:58.421Z,74.01
2018-06-18T01:45:03.949Z,74.39
2018-06-18T01:46:09.467Z,74.01
2018-06-18T01:47:15.998Z,74.01
2018-06-18T01:48:20.506Z,74.19
2018-06-18T01:49:26.018Z,73.81
2018-06-18T01:50:31.540Z,74.19
2018-06-18T01:51:37.076Z,74.10
2018-06-18T01:52:42.562Z,74.01
2018-06-18T01:53:49.119Z,74.19
2018-06-18T01:54:53.607Z,73.91
2018-06-18T01:55:59.103Z,73.81
2018-06-18T01:57:04.626Z,74.01
2018-06-18T01:58:10.123Z,74.01
2018-06-18T01:59:15.643Z,74.10
2018-06-18T02:00:22.202Z,73.66
2018-06-18T02:01:26.685Z,73.72
2018-06-18T02:02:32.203Z,73.81
2018-06-18T02:03:37.709Z,74.01
2018-06-18T02:04:43.236Z,73.62
2018-06-18T02:05:48.744Z,72.85
2018-06-18T02:06:55.278Z,73.81
2018-06-18T02:07:59.795Z,74.04
2018-06-18T02:09:05.289Z,73.14
2018-06-18T02:10:10.836Z,73.33
2018-06-18T02:11:16.339Z,73.81
2018-06-18T02:12:21.838Z,73.52
2018-06-18T02:13:28.421Z,73.56
2018-06-18T02:14:32.870Z,73.14
2018-06-18T02:15:38.394Z,73.81
2018-06-18T02:16:43.935Z,74.01
2018-06-18T02:17:49.419Z,74.10
2018-06-18T02:18:54.940Z,74.04
2018-06-18T02:20:01.449Z,73.66
2018-06-18T02:21:05.972Z,73.52
2018-06-18T02:22:11.483Z,73.75
2018-06-18T02:23:17.052Z,73.72
2018-06-18T02:24:22.508Z,74.01
2018-06-18T02:25:28.028Z,74.04
2018-06-18T02:26:34.556Z,73.14
2018-06-18T02:27:39.059Z,74.01
2018-06-18T02:28:44.572Z,73.72
2018-06-18T02:29:50.092Z,73.18
2018-06-18T02:30:55.607Z,73.04
2018-06-18T02:32:01.150Z,73.81
2018-06-18T02:33:07.665Z,73.52
2018-06-18T02:34:12.165Z,72.95
2018-06-18T02:35:17.678Z,73.33
2018-06-18T02:36:23.224Z,73.52
2018-06-18T02:37:28.711Z,72.95
2018-06-18T02:38:34.223Z,73.24
2018-06-18T02:39:40.750Z,72.95
2018-06-18T02:40:45.259Z,73.24
2018-06-18T02:41:50.772Z,73.72
2018-06-18T02:42:56.299Z,73.52
2018-06-18T02:44:01.798Z,74.19
2018-06-18T02:45:07.342Z,74.10
2018-06-18T02:46:13.841Z,73.91
2018-06-18T02:47:18.348Z,73.72
2018-06-18T02:48:23.876Z,73.81
2018-06-18T02:49:29.383Z,73.72
2018-06-18T02:50:34.913Z,73.94
2018-06-18T02:51:40.414Z,73.72
2018-06-18T02:52:46.945Z,73.08
2018-06-18T02:53:51.446Z,74.01
2018-06-18T02:54:56.956Z,73.81
2018-06-18T02:56:02.482Z,73.72
2018-06-18T02:57:08.055Z,74.10
2018-06-18T02:58:13.548Z,73.81
2018-06-18T02:59:20.028Z,74.23
2018-06-18T03:00:24.531Z,73.85
2018-06-18T03:01:30.058Z,73.62
2018-06-18T03:02:35.568Z,72.85
2018-06-18T03:03:41.079Z,73.33
2018-06-18T03:04:46.611Z,73.33
2018-06-18T03:05:53.133Z,73.14
2018-06-18T03:06:57.639Z,73.24
2018-06-18T03:08:03.146Z,73.18
2018-06-18T03:09:08.682Z,72.85
2018-06-18T03:10:14.189Z,73.91
2018-06-18T03:11:19.702Z,73.43
2018-06-18T03:12:26.235Z,73.81
2018-06-18T03:13:30.727Z,72.95
2018-06-18T03:14:36.252Z,73.04
2018-06-18T03:15:41.785Z,73.33
2018-06-18T03:16:47.355Z,73.08
2018-06-18T03:17:52.792Z,73.24
2018-06-18T03:18:59.324Z,73.18
2018-06-18T03:20:03.842Z,73.08
2018-06-18T03:21:09.346Z,73.24
2018-06-18T03:22:14.859Z,73.24
2018-06-18T03:23:20.364Z,73.24
2018-06-18T03:24:25.886Z,73.14
2018-06-18T03:25:33.192Z,73.33
2018-06-18T03:26:36.922Z,72.50
2018-06-18T03:27:42.445Z,72.37
2018-06-18T03:28:47.954Z,73.14
2018-06-18T03:29:53.461Z,72.89
2018-06-18T03:30:58.992Z,73.37
2018-06-18T03:32:05.513Z,73.43
2018-06-18T03:33:10.014Z,73.37
2018-06-18T03:34:15.525Z,73.08
2018-06-18T03:35:21.049Z,73.18
2018-06-18T03:36:26.565Z,73.37
2018-06-18T03:37:32.085Z,73.37
2018-06-18T03:38:38.623Z,72.79
2018-06-18T03:39:43.115Z,73.37
2018-06-18T03:40:48.622Z,72.99
2018-06-18T03:41:54.153Z,72.79
2018-06-18T03:42:59.698Z,73.08
2018-06-18T03:44:05.171Z,73.75
2018-06-18T03:45:11.695Z,73.94
2018-06-18T03:46:16.197Z,74.33
2018-06-18T03:47:21.732Z,73.66
2018-06-18T03:48:27.238Z,73.37
2018-06-18T03:49:32.763Z,73.27
2018-06-18T03:50:38.268Z,73.75
2018-06-18T03:51:44.794Z,74.04
2018-06-18T03:52:49.298Z,73.75
2018-06-18T03:53:54.806Z,73.56
2018-06-18T03:55:00.333Z,74.04
2018-06-18T03:56:05.861Z,74.52
2018-06-18T03:57:11.349Z,74.04
2018-06-18T03:58:17.884Z,74.23
2018-06-18T03:59:22.392Z,74.04
2018-06-18T04:00:27.909Z,74.04
2018-06-18T04:01:33.415Z,74.62
2018-06-18T04:02:38.937Z,73.94
2018-06-18T04:03:44.469Z,74.13
2018-06-18T04:04:50.981Z,74.43
2018-06-18T04:05:55.488Z,75.00
2018-06-18T04:07:01.001Z,74.52
2018-06-18T04:08:07.442Z,74.52
2018-06-18T04:09:12.035Z,73.94
2018-06-18T04:10:17.602Z,74.62
2018-06-18T04:11:24.090Z,74.90
2018-06-18T04:12:28.574Z,74.90
2018-06-18T04:13:34.098Z,75.20
2018-06-18T04:14:39.616Z,74.81
2018-06-18T04:15:45.139Z,74.71
2018-06-18T04:16:50.680Z,74.04
2018-06-18T04:17:57.171Z,75.20
2018-06-18T04:19:01.667Z,74.81
2018-06-18T04:20:07.211Z,74.81
2018-06-18T04:21:12.716Z,75.00
2018-06-18T04:22:18.216Z,75.57
2018-06-18T04:23:23.741Z,74.62
2018-06-18T04:24:30.265Z,75.20
2018-06-18T04:25:34.782Z,75.20
2018-06-18T04:26:40.283Z,75.67
2018-06-18T04:27:45.806Z,75.20
2018-06-18T04:28:51.314Z,75.48
2018-06-18T04:29:56.828Z,75.57
2018-06-18T04:31:03.413Z,75.38
2018-06-18T04:32:07.871Z,75.87
2018-06-18T04:33:13.382Z,76.06
2018-06-18T04:34:18.902Z,75.38
2018-06-18T04:35:24.430Z,75.57
2018-06-18T04:36:29.927Z,75.77
2018-06-18T04:37:36.462Z,75.87
2018-06-18T04:38:40.963Z,75.87
2018-06-18T04:39:46.473Z,75.38
2018-06-18T04:40:51.991Z,76.25
2018-06-18T04:41:57.519Z,75.96
2018-06-18T04:43:03.048Z,76.25
2018-06-18T04:44:09.558Z,76.25
2018-06-18T04:45:14.066Z,75.96
2018-06-18T04:46:19.571Z,76.73
2018-06-18T04:47:25.094Z,76.73
2018-06-18T04:48:30.671Z,77.11
2018-06-18T04:49:36.138Z,76.92
2018-06-18T04:50:42.637Z,77.01
2018-06-18T04:51:47.150Z,77.11
2018-06-18T04:52:52.671Z,77.21
2018-06-18T04:53:58.192Z,77.01
2018-06-18T04:55:03.703Z,77.11
2018-06-18T04:56:09.225Z,76.92
2018-06-18T04:57:15.755Z,77.88
2018-06-18T04:58:20.247Z,76.82
2018-06-18T04:59:25.761Z,77.01
2018-06-18T05:00:31.284Z,77.88
2018-06-18T05:01:36.801Z,77.78
2018-06-18T05:02:42.309Z,77.78
2018-06-18T05:03:48.835Z,77.69
2018-06-18T05:04:53.348Z,77.78
2018-06-18T05:05:58.852Z,78.27
2018-06-18T05:07:04.374Z,77.98
2018-06-18T05:08:09.895Z,77.98
2018-06-18T05:09:15.403Z,77.88
2018-06-18T05:10:21.938Z,78.27
2018-06-18T05:11:26.457Z,78.17
2018-06-18T05:12:31.962Z,78.27
2018-06-18T05:13:37.477Z,78.45
2018-06-18T05:14:43.008Z,78.36
2018-06-18T05:15:48.520Z,77.88
2018-06-18T05:16:55.089Z,77.88
2018-06-18T05:17:59.548Z,77.31
2018-06-18T05:19:05.161Z,77.98
2018-06-18T05:20:10.559Z,77.11
2018-06-18T05:21:16.143Z,77.78
2018-06-18T05:22:21.607Z,78.45
2018-06-18T05:23:28.118Z,78.36
2018-06-18T05:24:32.644Z,78.55
2018-06-18T05:25:38.154Z,77.73
2018-06-18T05:26:43.664Z,78.59
2018-06-18T05:27:49.170Z,78.40
2018-06-18T05:28:54.688Z,77.73
2018-06-18T05:30:01.214Z,78.30
2018-06-18T05:31:05.721Z,78.40
2018-06-18T05:32:11.341Z,78.21
2018-06-18T05:33:16.775Z,78.02
2018-06-18T05:34:22.286Z,78.02
2018-06-18T05:35:27.795Z,77.15
2018-06-18T05:36:34.308Z,77.83
2018-06-18T05:37:38.819Z,77.44
2018-06-18T05:38:44.359Z,76.77
2018-06-18T05:39:49.851Z,77.25
2018-06-18T05:40:55.386Z,76.96
2018-06-18T05:42:00.892Z,78.02
2018-06-18T05:43:07.423Z,77.83
2018-06-18T05:44:11.954Z,77.06
2018-06-18T05:45:17.450Z,76.77
2018-06-18T05:46:22.950Z,76.48
2018-06-18T05:47:28.467Z,76.86
2018-06-18T05:48:33.980Z,77.15
2018-06-18T05:49:40.522Z,77.06
2018-06-18T05:50:45.072Z,76.96
2018-06-18T05:51:50.556Z,77.15
2018-06-18T05:52:56.038Z,77.09
2018-06-18T05:54:01.568Z,77.25
2018-06-18T05:55:07.089Z,77.44
2018-06-18T05:56:13.617Z,78.11
2018-06-18T05:57:18.114Z,77.15
2018-06-18T05:58:23.677Z,77.00
2018-06-18T05:59:29.148Z,76.90
2018-06-18T06:00:34.658Z,76.90
2018-06-18T06:01:40.171Z,76.61
2018-06-18T06:02:46.712Z,77.19
2018-06-18T06:03:51.201Z,77.09
2018-06-18T06:04:56.731Z,77.00
2018-06-18T06:06:02.273Z,75.75
2018-06-18T06:07:07.751Z,76.04
2018-06-18T06:08:13.285Z,77.00
2018-06-18T06:09:19.796Z,77.00
2018-06-18T06:10:24.327Z,76.71
2018-06-18T06:11:29.819Z,76.90
2018-06-18T06:12:35.334Z,77.19
2018-06-18T06:13:40.863Z,77.19
2018-06-18T06:14:46.372Z,77.19
2018-06-18T06:15:52.914Z,77.19
2018-06-18T06:16:57.447Z,77.09
2018-06-18T06:18:02.922Z,77.09
2018-06-18T06:19:08.461Z,77.00
2018-06-18T06:20:13.960Z,77.19
2018-06-18T06:21:19.476Z,77.09
2018-06-18T06:22:26.044Z,77.00
2018-06-18T06:23:30.509Z,76.65
2018-06-18T06:24:36.022Z,76.17
2018-06-18T06:25:41.539Z,75.98
2018-06-18T06:26:47.049Z,75.49
2018-06-18T06:27:52.571Z,75.21
2018-06-18T06:28:59.109Z,75.69
2018-06-18T06:30:03.602Z,75.49
2018-06-18T06:31:09.158Z,75.31
2018-06-18T06:32:14.652Z,75.49
2018-06-18T06:33:20.149Z,75.88
2018-06-18T06:34:25.667Z,75.21
2018-06-18T06:35:32.197Z,74.73
2018-06-18T06:36:36.704Z,75.40
2018-06-18T06:37:42.211Z,76.26
2018-06-18T06:38:47.743Z,74.54
2018-06-18T06:39:53.249Z,75.31
2018-06-18T06:40:58.769Z,76.26
2018-06-18T06:42:05.291Z,75.88
2018-06-18T06:43:09.801Z,75.69
2018-06-18T06:44:15.325Z,76.01
2018-06-18T06:45:20.822Z,75.88
2018-06-18T06:46:26.357Z,76.31
2018-06-18T06:47:31.862Z,75.63
2018-06-18T06:48:38.402Z,75.54
2018-06-18T06:49:42.898Z,75.44
2018-06-18T06:50:48.427Z,75.15
2018-06-18T06:51:53.924Z,76.01
2018-06-18T06:52:59.453Z,75.82
2018-06-18T06:54:04.972Z,75.73
2018-06-18T06:55:11.500Z,75.24
2018-06-18T06:56:16.012Z,75.73
2018-06-18T06:57:21.513Z,75.15
2018-06-18T06:58:27.047Z,74.57
2018-06-18T06:59:32.552Z,73.71
2018-06-18T07:00:38.080Z,73.32
2018-06-18T07:01:44.596Z,74.76
2018-06-18T07:02:49.114Z,75.44
2018-06-18T07:03:54.700Z,74.96
2018-06-18T07:05:00.169Z,74.48
2018-06-18T07:06:05.647Z,75.05
2018-06-18T07:07:11.175Z,74.96
2018-06-18T07:08:17.712Z,74.48
2018-06-18T07:09:22.197Z,74.22
2018-06-18T07:10:27.709Z,74.32
2018-06-18T07:11:33.242Z,74.03
2018-06-18T07:12:38.761Z,72.97
2018-06-18T07:13:44.313Z,72.68
2018-06-18T07:14:50.809Z,72.01
2018-06-18T07:15:55.306Z,72.78
2018-06-18T07:17:00.829Z,72.78
2018-06-18T07:18:06.334Z,73.16
2018-06-18T07:19:11.855Z,73.16
2018-06-18T07:20:17.370Z,72.68
2018-06-18T07:21:23.906Z,73.26
2018-06-18T07:22:28.416Z,73.36
2018-06-18T07:23:33.919Z,72.97
2018-06-18T07:24:39.438Z,74.13
2018-06-18T07:25:44.965Z,74.61
2018-06-18T07:26:50.484Z,73.39
2018-06-18T07:27:57.000Z,72.72
2018-06-18T07:29:01.525Z,72.72
2018-06-18T07:30:07.077Z,72.81
2018-06-18T07:31:12.535Z,73.20
2018-06-18T07:32:18.069Z,72.81
2018-06-18T07:33:23.584Z,72.72
2018-06-18T07:34:30.100Z,73.01
2018-06-18T07:35:34.634Z,73.30
2018-06-18T07:36:40.151Z,73.49
2018-06-18T07:37:45.657Z,72.72
2018-06-18T07:38:51.174Z,72.33
2018-06-18T07:39:56.770Z,72.05
2018-06-18T07:41:03.222Z,72.14
2018-06-18T07:42:07.716Z,71.76
2018-06-18T07:43:13.246Z,71.37
2018-06-18T07:44:18.747Z,71.56
2018-06-18T07:45:24.283Z,71.37
2018-06-18T07:46:29.799Z,72.05
2018-06-18T07:47:36.320Z,72.47
2018-06-18T07:48:40.822Z,71.98
2018-06-18T07:49:46.334Z,71.60
2018-06-18T07:50:51.850Z,72.27
2018-06-18T07:51:57.373Z,72.56
2018-06-18T07:53:02.888Z,72.75
2018-06-18T07:54:09.412Z,72.37
2018-06-18T07:55:13.922Z,71.98
2018-06-18T07:56:19.454Z,71.60
2018-06-18T07:57:24.981Z,71.41
2018-06-18T07:58:30.477Z,71.12
2018-06-18T07:59:35.998Z,71.79
2018-06-18T08:00:42.521Z,71.79
2018-06-18T08:01:47.034Z,72.18
2018-06-18T08:02:52.575Z,71.79
2018-06-18T08:03:58.063Z,71.31
2018-06-18T08:05:03.583Z,71.41
2018-06-18T08:06:09.101Z,71.41
2018-06-18T08:07:15.640Z,71.79
2018-06-18T08:08:20.169Z,72.18
2018-06-18T08:09:25.650Z,71.41
2018-06-18T08:10:31.171Z,71.79
2018-06-18T08:11:36.694Z,71.98
2018-06-18T08:12:42.199Z,72.37
2018-06-18T08:13:48.725Z,70.92
2018-06-18T08:14:53.254Z,72.37
2018-06-18T08:15:58.757Z,71.79
2018-06-18T08:17:04.266Z,72.95
2018-06-18T08:18:09.790Z,72.56
2018-06-18T08:19:15.337Z,71.98
2018-06-18T08:20:21.831Z,71.12
2018-06-18T08:21:26.343Z,71.12
2018-06-18T08:22:31.857Z,72.47
2018-06-18T08:23:37.372Z,71.22
2018-06-18T08:24:42.885Z,71.12
2018-06-18T08:25:48.427Z,71.02
2018-06-18T08:26:55.019Z,72.08
2018-06-18T08:27:59.445Z,71.89
2018-06-18T08:29:04.963Z,71.79
2018-06-18T08:30:10.485Z,71.54
2018-06-18T08:31:15.984Z,71.15
2018-06-18T08:32:21.573Z,72.41
2018-06-18T08:33:28.043Z,72.69
2018-06-18T08:34:32.550Z,72.02
2018-06-18T08:35:38.065Z,71.34
2018-06-18T08:36:43.677Z,71.34
2018-06-18T08:37:49.113Z,71.54
2018-06-18T08:38:54.628Z,70.76
2018-06-18T08:40:01.142Z,70.48
2018-06-18T08:41:05.666Z,71.86
2018-06-18T08:42:11.185Z,71.58
2018-06-18T08:43:16.695Z,71.19
2018-06-18T08:44:22.215Z,71.86
2018-06-18T08:45:27.731Z,71.77
2018-06-18T08:46:34.257Z,72.34
2018-06-18T08:47:38.768Z,70.70
2018-06-18T08:48:44.289Z,70.80
2018-06-18T08:49:49.816Z,70.22
2018-06-18T08:50:55.314Z,70.51
2018-06-18T08:52:00.849Z,69.64
2018-06-18T08:53:07.370Z,68.10
2018-06-18T08:54:11.873Z,69.74
2018-06-18T08:55:17.382Z,70.22
2018-06-18T08:56:22.913Z,69.55
2018-06-18T08:57:28.425Z,69.68
2018-06-18T08:58:33.948Z,70.22
2018-06-18T08:59:40.473Z,69.26
2018-06-18T09:00:45.007Z,69.84
2018-06-18T09:01:50.490Z,69.16
2018-06-18T09:02:56.013Z,70.03
2018-06-18T09:04:01.535Z,70.51
2018-06-18T09:05:07.062Z,70.80
2018-06-18T09:06:13.606Z,70.51
2018-06-18T09:07:18.085Z,69.78
2018-06-18T09:08:23.613Z,70.45
2018-06-18T09:09:29.145Z,71.22
2018-06-18T09:10:34.661Z,70.54
2018-06-18T09:11:40.162Z,70.74
2018-06-18T09:12:46.740Z,70.54
2018-06-18T09:13:51.202Z,70.06
2018-06-18T09:14:56.717Z,70.16
2018-06-18T09:16:02.305Z,69.78
2018-06-18T09:17:07.773Z,69.78
2018-06-18T09:18:13.293Z,70.06
2018-06-18T09:19:19.821Z,70.36
2018-06-18T09:20:24.484Z,70.26
2018-06-18T09:21:29.834Z,69.90
2018-06-18T09:22:35.350Z,70.06
2018-06-18T09:23:40.925Z,70.58
2018-06-18T09:24:46.404Z,69.71
2018-06-18T09:25:52.915Z,69.81
2018-06-18T09:26:57.429Z,69.32
2018-06-18T09:28:03.033Z,69.04
2018-06-18T09:29:08.480Z,69.32
2018-06-18T09:30:13.987Z,69.42
2018-06-18T09:31:19.490Z,70.10
2018-06-18T09:32:26.184Z,69.56
2018-06-18T09:33:30.520Z,68.68
2018-06-18T09:34:36.041Z,68.88
2018-06-18T09:35:41.633Z,68.68
2018-06-18T09:36:47.088Z,69.65
2018-06-18T09:37:52.711Z,67.62
2018-06-18T09:38:59.135Z,68.30
2018-06-18T09:40:03.647Z,66.75
2018-06-18T09:41:09.351Z,66.27
2018-06-18T09:42:14.700Z,66.17
2018-06-18T09:43:20.207Z,66.17
2018-06-18T09:44:25.721Z,66.17
2018-06-18T09:45:32.260Z,66.66
2018-06-18T09:46:36.741Z,66.36
2018-06-18T09:47:42.321Z,67.24
2018-06-18T09:48:47.795Z,67.62
2018-06-18T09:49:53.319Z,66.85
2018-06-18T09:50:58.852Z,66.85
2018-06-18T09:52:05.374Z,66.36
2018-06-18T09:53:09.871Z,66.56
2018-06-18T09:54:15.367Z,67.43
2018-06-18T09:55:20.913Z,67.33
2018-06-18T09:56:26.429Z,66.05
2018-06-18T09:57:31.946Z,65.85
2018-06-18T09:58:38.479Z,66.63
2018-06-18T09:59:43.003Z,67.01
2018-06-18T10:00:48.486Z,66.53
2018-06-18T10:01:54.033Z,67.40
2018-06-18T10:02:59.533Z,66.72
2018-06-18T10:04:05.056Z,66.82
2018-06-18T10:05:11.585Z,66.72
2018-06-18T10:06:16.088Z,67.49
2018-06-18T10:07:21.654Z,67.59
2018-06-18T10:08:27.182Z,67.01
2018-06-18T10:09:32.686Z,66.43
2018-06-18T10:10:38.163Z,66.91
2018-06-18T10:11:44.690Z,67.14
2018-06-18T10:12:49.200Z,67.52
2018-06-18T10:13:54.724Z,65.88
2018-06-18T10:15:00.245Z,65.50
2018-06-18T10:16:05.764Z,66.46
2018-06-18T10:17:11.283Z,67.14
2018-06-18T10:18:17.795Z,66.75
2018-06-18T10:19:22.308Z,66.85
2018-06-18T10:20:27.840Z,65.98
2018-06-18T10:21:33.370Z,66.08
2018-06-18T10:22:38.880Z,64.43
2018-06-18T10:23:44.396Z,66.17
2018-06-18T10:24:50.898Z,66.17
2018-06-18T10:25:55.440Z,66.27
2018-06-18T10:27:00.961Z,65.75
2018-06-18T10:28:06.481Z,66.17
2018-06-18T10:29:11.971Z,65.78
2018-06-18T10:30:17.491Z,66.08
2018-06-18T10:31:24.022Z,66.08
2018-06-18T10:32:28.548Z,66.94
2018-06-18T10:33:34.051Z,66.75
2018-06-18T10:34:39.572Z,65.98
2018-06-18T10:35:45.102Z,65.59
2018-06-18T10:36:50.618Z,65.40
2018-06-18T10:37:57.180Z,65.11
2018-06-18T10:39:01.640Z,65.30
2018-06-18T10:40:07.186Z,66.08
2018-06-18T10:41:12.681Z,66.85
2018-06-18T10:42:18.191Z,66.50
2018-06-18T10:43:23.715Z,65.14
2018-06-18T10:44:30.249Z,63.60
2018-06-18T10:45:34.748Z,63.63
2018-06-18T10:46:40.291Z,65.08
2018-06-18T10:47:45.798Z,63.73
2018-06-18T10:48:51.338Z,63.14
2018-06-18T10:49:56.847Z,63.63
2018-06-18T10:51:03.361Z,63.53
2018-06-18T10:52:07.857Z,63.34
2018-06-18T10:53:13.394Z,63.63
2018-06-18T10:54:18.900Z,64.11
2018-06-18T10:55:24.445Z,63.73
2018-06-18T10:56:29.957Z,62.95
2018-06-18T10:57:36.468Z,63.53
2018-06-18T10:58:41.002Z,63.34
2018-06-18T10:59:46.517Z,63.50
2018-06-18T11:00:52.067Z,62.92
2018-06-18T11:01:57.556Z,63.02
2018-06-18T11:03:03.063Z,63.50
2018-06-18T11:04:09.635Z,63.79
2018-06-18T11:05:14.219Z,63.69
2018-06-18T11:06:19.644Z,63.98
2018-06-18T11:07:25.145Z,63.40
2018-06-18T11:08:30.655Z,64.27
2018-06-18T11:09:36.177Z,63.18
2018-06-18T11:10:42.737Z,64.34
2018-06-18T11:11:47.230Z,65.01
2018-06-18T11:12:52.727Z,65.11
2018-06-18T11:13:58.247Z,66.69
2018-06-18T11:15:03.789Z,66.30
2018-06-18T11:16:09.353Z,66.20
2018-06-18T11:17:16.194Z,66.20
2018-06-18T11:18:21.011Z,65.63
2018-06-18T11:19:25.842Z,66.30
2018-06-18T11:20:31.356Z,66.08
2018-06-18T11:21:36.872Z,66.08
2018-06-18T11:22:42.387Z,66.20
2018-06-18T11:23:48.939Z,67.04
2018-06-18T11:24:53.442Z,66.17
2018-06-18T11:25:58.958Z,66.08
2018-06-18T11:27:04.575Z,66.85
2018-06-18T11:28:10.030Z,67.04
2018-06-18T11:29:15.508Z,65.50
2018-06-18T11:30:22.037Z,65.50
2018-06-18T11:31:26.573Z,65.20
2018-06-18T11:32:32.123Z,65.98
2018-06-18T11:33:37.597Z,65.98
2018-06-18T11:34:43.112Z,66.17
2018-06-18T11:35:48.626Z,67.46
2018-06-18T11:36:55.184Z,67.04
2018-06-18T11:37:59.673Z,66.85
2018-06-18T11:39:05.192Z,67.36
2018-06-18T11:40:10.706Z,66.66
2018-06-18T11:41:16.234Z,66.40
2018-06-18T11:42:21.745Z,66.50
2018-06-18T11:43:28.307Z,66.40
2018-06-18T11:44:32.773Z,66.69
2018-06-18T11:45:38.315Z,66.20
2018-06-18T11:46:43.823Z,65.82
2018-06-18T11:47:49.352Z,65.53
2018-06-18T11:48:54.856Z,65.08
2018-06-18T11:50:01.409Z,64.59
2018-06-18T11:51:05.891Z,65.17
2018-06-18T11:52:11.416Z,64.98
2018-06-18T11:53:17.001Z,64.79
2018-06-18T11:54:22.508Z,65.37
2018-06-18T11:55:27.991Z,65.27
2018-06-18T11:56:34.520Z,64.98
2018-06-18T11:57:39.045Z,66.33
2018-06-18T11:58:44.543Z,66.33
2018-06-18T11:59:50.049Z,67.14
2018-06-18T12:00:55.577Z,66.75
2018-06-18T12:02:01.161Z,66.33
2018-06-18T12:03:07.617Z,65.47
2018-06-18T12:04:12.133Z,65.11
2018-06-18T12:05:17.678Z,63.66
2018-06-18T12:06:23.250Z,63.46
2018-06-18T12:07:28.680Z,63.46
2018-06-18T12:08:34.193Z,63.66
2018-06-18T12:09:40.809Z,63.63
2018-06-18T12:10:45.234Z,64.21
2018-06-18T12:11:50.760Z,63.53
2018-06-18T12:12:56.272Z,64.01
2018-06-18T12:14:01.804Z,63.63
2018-06-18T12:15:07.322Z,63.73
2018-06-18T12:16:13.855Z,63.63
2018-06-18T12:17:18.360Z,63.82
2018-06-18T12:18:23.873Z,64.11
2018-06-18T12:19:29.418Z,65.17
2018-06-18T12:20:34.916Z,63.92
2018-06-18T12:21:40.435Z,63.73
2018-06-18T12:22:46.965Z,64.27
2018-06-18T12:23:51.468Z,65.05
2018-06-18T12:24:56.994Z,63.60
2018-06-18T12:26:02.566Z,64.27
2018-06-18T12:27:08.205Z,64.18
2018-06-18T12:28:13.554Z,65.05
2018-06-18T12:29:20.076Z,65.05
2018-06-18T12:30:24.575Z,65.14
2018-06-18T12:31:30.106Z,64.95
2018-06-18T12:32:35.621Z,64.66
2018-06-18T12:33:41.155Z,65.34
2018-06-18T12:34:46.662Z,65.14
2018-06-18T12:35:53.210Z,66.63
2018-06-18T12:36:57.714Z,66.14
2018-06-18T12:38:03.246Z,66.05
2018-06-18T12:39:08.776Z,66.20
2018-06-18T12:40:14.272Z,66.14
2018-06-18T12:41:19.817Z,65.37
2018-06-18T12:42:26.309Z,63.82
2018-06-18T12:43:30.876Z,64.59
2018-06-18T12:44:36.334Z,63.53
2018-06-18T12:45:41.848Z,63.43
2018-06-18T12:46:47.418Z,64.98
2018-06-18T12:47:52.935Z,65.17
2018-06-18T12:48:59.430Z,65.08
2018-06-18T12:50:03.929Z,66.05
2018-06-18T12:51:09.461Z,66.11
2018-06-18T12:52:14.971Z,65.92
2018-06-18T12:53:20.565Z,65.24
2018-06-18T12:54:26.018Z,65.24
2018-06-18T12:55:32.549Z,66.01
2018-06-18T12:56:37.096Z,66.50
2018-06-18T12:57:42.627Z,66.98
2018-06-18T12:58:48.159Z,66.94
2018-06-18T12:59:53.611Z,66.27
2018-06-18T13:00:59.131Z,67.24
2018-06-18T13:02:05.670Z,68.01
2018-06-18T13:03:10.167Z,67.52
2018-06-18T13:04:15.675Z,68.59
2018-06-18T13:05:21.200Z,68.49
2018-06-18T13:06:26.742Z,68.07
2018-06-18T13:07:32.230Z,68.65
2018-06-18T13:08:38.772Z,69.04
2018-06-18T13:09:43.270Z,69.32
2018-06-18T13:10:48.813Z,69.32
2018-06-18T13:11:54.308Z,69.81
2018-06-18T13:12:59.848Z,69.42
2018-06-18T13:14:05.352Z,69.32
2018-06-18T13:15:11.893Z,69.49
2018-06-18T13:16:16.388Z,70.16
2018-06-18T13:17:21.904Z,70.16
2018-06-18T13:18:27.414Z,71.22
2018-06-18T13:19:32.936Z,71.22
2018-06-18T13:20:38.477Z,71.32
2018-06-18T13:21:45.017Z,71.51
2018-06-18T13:22:49.501Z,72.00
2018-06-18T13:23:55.023Z,72.28
2018-06-18T13:25:00.531Z,72.77
2018-06-18T13:26:06.059Z,73.35
2018-06-18T13:27:11.565Z,74.12
2018-06-18T13:28:18.113Z,75.57
2018-06-18T13:29:22.641Z,75.47
2018-06-18T13:30:28.155Z,76.43
2018-06-18T13:31:33.659Z,77.01
2018-06-18T13:32:39.169Z,77.75
2018-06-18T13:33:44.698Z,78.42
2018-06-18T13:34:51.226Z,78.23
2018-06-18T13:35:55.717Z,78.66
2018-06-18T13:37:01.304Z,79.14
2018-06-18T13:38:06.768Z,79.58
2018-06-18T13:39:12.264Z,79.58
2018-06-18T13:40:17.797Z,80.54
2018-06-18T13:41:24.347Z,80.26
2018-06-18T13:42:28.854Z,79.87
2018-06-18T13:43:34.358Z,79.77
2018-06-18T13:44:39.861Z,79.10
2018-06-18T13:45:45.399Z,80.45
2018-06-18T13:46:50.912Z,81.02
2018-06-18T13:47:57.432Z,81.80
2018-06-18T13:49:01.955Z,81.60
2018-06-18T13:50:07.447Z,81.90
2018-06-18T13:51:12.971Z,81.99
2018-06-18T13:52:18.487Z,81.12
2018-06-18T13:53:24.035Z,80.49
2018-06-18T13:54:30.540Z,79.29
2018-06-18T13:55:35.052Z,79.58
2018-06-18T13:56:40.574Z,79.97
2018-06-18T13:57:46.079Z,80.45
2018-06-18T13:58:51.612Z,80.16
2018-06-18T13:59:57.127Z,80.16
2018-06-18T14:01:03.652Z,80.54
2018-06-18T14:02:08.158Z,80.26
2018-06-18T14:03:13.772Z,80.16